Date,TemperatureHighF,TemperatureAvgF,TemperatureLowF,DewpointHighF,DewpointAvgF,DewpointLowF,HumidityHigh,HumidityAvg,HumidityLow,PressureMaxIn,PressureMinIn,WindSpeedMaxMPH,WindSpeedAvgMPH,GustSpeedMaxMPH,PrecipitationSumIn
2013-1-1,40,36,32,37,34,30,95,93,89,30.45,30.30,9,2,9,0.01
2013-1-2,38,33,30,37,32,28,95,93,92,30.31,30.15,5,2,5,0.00
2013-1-3,37,33,29,35,31,27,95,93,91,30.16,30.07,8,2,8,0.25
2013-1-4,48,42,36,47,41,34,97,96,95,30.28,30.13,10,2,10,0.14
2013-1-5,44,42,40,43,41,39,96,96,95,30.17,30.08,5,1,5,0.11
2013-1-6,46,41,37,44,40,36,96,95,93,30.16,29.95,2,0,2,0.16
2013-1-7,49,45,42,48,44,40,97,95,92,30.12,29.78,6,0,6,0.08
2013-1-8,51,46,42,49,45,41,97,95,93,30.12,29.71,0,0,0,0.76
2013-1-9,49,41,36,48,40,34,96,93,90,29.91,29.64,10,1,10,1.13
2013-1-10,38,35,31,36,33,29,95,93,91,30.09,29.90,7,1,7,0.01
2013-1-11,38,32,28,33,29,26,94,87,73,30.29,30.08,9,1,9,0.00
2013-1-12,37,30,26,33,27,24,93,89,77,30.40,30.27,7,1,7,0.01
2013-1-13,37,30,27,33,27,24,92,89,82,30.46,30.39,4,1,4,0.01
2013-1-14,42,32,26,36,29,24,93,90,71,30.53,30.43,5,1,5,0.00
2013-1-15,46,34,28,40,32,26,95,90,74,30.66,30.53,0,0,0,0.00
2013-1-16,53,33,27,42,31,25,96,91,66,30.64,30.47,0,0,0,0.00
2013-1-17,38,36,31,36,34,29,94,93,92,30.48,30.26,0,0,0,0.01
2013-1-18,40,35,32,38,34,30,95,94,92,30.31,30.22,0,0,0,0.00
2013-1-19,38,36,35,36,35,34,95,94,93,30.35,30.29,0,0,0,0.00
2013-1-20,41,38,35,40,36,33,95,94,92,30.35,30.23,5,0,5,0.00
2013-1-21,38,37,34,37,35,32,95,94,93,30.25,30.10,5,0,5,0.00
2013-1-22,39,35,32,37,33,30,95,94,93,30.11,29.88,2,0,2,0.01
2013-1-23,42,40,37,40,38,35,95,93,90,30.10,29.81,10,2,10,0.18
2013-1-24,44,39,33,42,38,32,96,95,90,30.17,30.02,6,1,6,0.18
2013-1-25,55,44,37,51,42,35,96,93,86,30.03,29.89,5,1,5,0.02
2013-1-26,45,41,37,44,40,36,95,94,91,30.01,29.84,5,1,5,0.24
2013-1-27,41,40,38,40,38,37,95,94,93,30.03,29.95,9,2,9,0.05
2013-1-28,42,40,38,41,39,36,95,94,94,30.06,29.97,7,1,7,0.06
2013-1-29,46,44,41,45,43,39,96,95,95,30.32,30.05,10,1,10,0.09
2013-1-30,50,46,44,48,45,43,96,95,95,30.35,30.27,6,1,6,0.04
2013-1-31,50,46,45,49,45,44,96,95,93,30.37,30.26,10,2,10,0.08
2013-2-1,50,45,42,48,43,40,96,94,90,30.37,30.29,9,2,9,0.02
2013-2-2,45,42,40,43,41,38,95,94,91,30.34,30.22,9,2,9,0.00
2013-2-3,49,43,39,47,41,38,95,94,91,30.27,30.17,6,1,6,0.03
2013-2-4,52,45,40,48,43,38,95,92,85,30.18,29.86,7,1,7,0.02
2013-2-5,51,44,39,47,42,36,94,92,86,29.92,29.80,12,2,12,0.18
2013-2-6,50,44,41,47,42,40,95,93,88,30.02,29.76,11,2,11,0.26
2013-2-7,47,41,35,44,38,32,94,90,83,30.15,29.77,10,2,10,0.08
2013-2-8,46,39,33,44,36,30,95,91,84,30.28,30.15,7,1,7,0.00
2013-2-9,49,42,36,45,39,34,94,89,81,30.31,30.22,5,1,5,0.01
2013-2-10,45,42,36,41,38,34,94,89,85,30.34,30.29,6,1,6,0.00
2013-2-11,49,43,37,45,40,35,94,89,82,30.32,30.29,7,1,7,0.01
2013-2-12,51,46,44,48,44,41,94,92,87,30.36,30.28,15,2,15,0.02
2013-2-13,51,47,44,46,43,40,92,87,81,30.47,30.28,12,2,12,0.02
2013-2-14,50,46,41,47,44,38,92,91,89,30.52,30.46,5,0,5,0.02
2013-2-15,55,46,37,50,43,34,94,89,78,30.51,30.15,8,1,8,0.00
2013-2-16,54,44,36,46,40,33,93,85,70,30.16,30.08,19,3,19,0.00
2013-2-17,51,42,36,44,37,33,88,82,70,30.21,30.07,11,1,11,0.00
2013-2-18,48,41,36,42,37,33,93,85,74,30.07,29.72,8,1,8,0.01
2013-2-19,53,41,31,46,36,28,91,84,72,29.98,29.70,10,1,10,0.00
2013-2-20,47,39,31,43,36,28,93,89,84,30.01,29.96,8,1,8,0.13
2013-2-21,44,41,39,41,39,37,93,92,90,30.04,29.98,13,2,13,0.07
2013-2-22,44,41,37,43,39,34,94,92,89,30.04,29.67,19,4,19,0.75
2013-2-23,53,41,34,46,37,32,93,84,68,30.33,29.87,14,2,14,0.00
2013-2-24,48,44,38,42,38,34,87,81,74,30.34,29.91,12,2,12,0.04
2013-2-25,52,42,34,42,36,29,90,80,54,30.28,29.86,21,4,21,0.15
2013-2-26,51,42,32,41,36,29,90,81,67,30.31,30.16,12,2,12,0.01
2013-2-27,50,45,40,45,41,36,91,87,82,30.27,30.16,7,1,7,0.24
2013-2-28,53,47,42,51,46,40,94,93,91,30.30,30.16,9,2,9,0.56
2013-3-1,56,52,50,53,50,47,95,92,89,30.34,30.25,13,2,13,0.15
2013-3-2,58,49,36,52,45,33,91,88,78,30.25,30.04,12,2,12,0.28
2013-3-3,54,39,30,46,35,28,94,85,67,30.27,30.17,6,1,6,0.01
2013-3-4,53,40,31,43,34,28,92,81,64,30.27,29.89,10,1,10,0.00
2013-3-5,51,42,36,45,37,30,90,83,75,29.89,29.69,7,1,7,0.07
2013-3-6,45,42,39,42,39,37,93,90,88,29.86,29.54,9,1,9,0.32
2013-3-7,54,44,39,49,41,36,94,89,75,30.06,29.86,10,1,10,0.23
2013-3-8,55,44,36,47,40,32,92,85,70,30.21,30.04,9,2,9,0.00
2013-3-9,55,41,33,46,37,30,93,84,65,30.47,30.21,5,1,5,0.01
2013-3-10,47,42,35,43,38,31,91,88,84,30.46,30.39,5,1,5,0.00
2013-3-11,50,45,42,45,42,39,93,89,82,30.41,30.14,5,1,5,0.08
2013-3-12,54,50,46,50,48,45,94,92,86,30.14,30.05,11,2,11,0.55
2013-3-13,52,49,48,50,48,46,95,94,94,30.17,30.08,8,2,8,0.19
2013-3-14,53,50,48,49,47,45,94,89,81,30.13,30.03,11,2,11,0.13
2013-3-15,57,51,47,53,48,45,95,91,82,30.18,30.11,15,3,15,0.08
2013-3-16,49,45,39,46,42,36,93,89,79,30.11,29.87,16,4,16,0.15
2013-3-17,50,41,35,39,35,32,90,80,61,30.17,29.95,21,3,21,0.00
2013-3-18,55,44,38,42,36,32,91,75,48,30.20,30.10,12,3,12,0.02
2013-3-19,51,43,38,42,38,33,91,81,66,30.19,29.56,7,1,7,0.46
2013-3-20,51,45,38,48,41,33,94,87,78,29.99,29.36,21,4,21,0.74
2013-3-21,50,41,34,39,35,30,89,80,56,30.18,29.99,16,3,16,0.04
2013-3-22,47,38,32,37,32,28,90,80,59,30.34,30.18,8,1,8,0.00
2013-3-23,51,40,34,39,32,27,87,73,49,30.36,30.27,6,1,6,0.00
2013-3-24,53,40,31,40,33,27,89,75,51,30.27,30.10,6,1,6,0.01
2013-3-25,59,47,34,42,35,30,87,64,40,30.10,29.91,6,1,6,0.00
2013-3-26,60,51,45,44,39,35,75,64,53,29.99,29.93,8,1,8,0.00
2013-3-27,55,49,43,46,41,37,85,74,64,29.97,29.91,6,1,6,0.00
2013-3-28,60,50,44,51,45,39,91,82,68,30.12,29.96,6,1,6,0.09
2013-3-29,62,52,44,51,45,41,91,78,53,30.23,30.12,8,1,8,0.00
2013-3-30,62,52,44,49,44,41,94,76,58,30.23,30.05,13,3,13,0.00
2013-3-31,65,55,47,49,44,41,84,68,50,30.05,29.89,9,2,9,0.00
2013-4-1,63,53,49,52,46,43,86,79,63,30.14,29.96,11,2,11,0.00
2013-4-2,57,52,48,49,46,43,85,81,75,30.17,30.13,9,1,9,0.00
2013-4-3,60,52,45,50,45,41,91,77,64,30.17,29.92,6,1,6,0.00
2013-4-4,54,51,48,52,47,43,93,88,78,29.92,29.63,9,1,9,0.32
2013-4-5,58,52,48,52,49,46,94,90,79,29.85,29.70,14,3,14,0.96
2013-4-6,50,47,44,48,45,42,94,92,88,29.91,29.68,14,2,14,0.59
2013-4-7,49,43,39,46,41,37,95,93,87,29.86,29.47,9,1,10,1.07
2013-4-8,56,48,41,49,44,40,95,87,75,30.25,29.86,8,1,8,0.01
2013-4-9,56,48,40,47,43,37,91,83,67,30.32,30.16,8,1,8,0.00
2013-4-10,59,52,45,51,45,40,94,79,61,30.22,29.92,21,4,21,0.52
2013-4-11,53,47,42,46,41,36,91,80,66,30.28,30.16,8,2,8,0.02
2013-4-12,46,42,38,42,38,34,92,86,77,30.16,29.67,13,2,13,0.39
2013-4-13,50,43,37,43,38,33,90,83,70,29.97,29.71,17,4,17,0.00
2013-4-14,55,45,38,45,38,32,88,77,46,29.98,29.90,10,2,10,0.00
2013-4-15,57,45,36,44,38,32,90,77,54,30.15,29.92,8,2,8,0.00
2013-4-16,57,46,36,45,37,32,90,72,49,30.36,30.15,9,2,9,0.00
2013-4-17,61,48,37,45,39,32,85,71,50,30.43,30.36,13,2,13,0.00
2013-4-18,51,47,42,46,42,36,90,82,75,30.43,30.18,10,2,10,0.07
2013-4-19,56,51,48,53,48,45,93,91,87,30.18,30.03,13,2,13,0.62
2013-4-20,59,50,45,49,45,41,90,82,67,30.25,30.16,13,3,13,0.00
2013-4-21,52,46,42,46,42,38,89,85,78,30.33,30.20,10,2,10,0.10
2013-4-22,59,49,38,46,38,32,92,70,40,30.50,30.33,12,2,12,0.01
2013-4-23,63,50,35,43,35,28,84,60,32,30.40,30.22,10,2,10,0.00
2013-4-24,69,56,40,46,39,31,82,56,28,30.30,30.04,10,2,10,0.00
2013-4-25,72,58,43,46,40,34,73,54,32,30.13,30.01,6,1,6,0.02
2013-4-26,70,57,48,52,46,42,83,68,47,30.24,30.13,6,1,6,0.00
2013-4-27,57,53,51,48,44,40,86,72,61,30.20,30.14,15,3,15,0.00
2013-4-28,60,53,48,49,44,40,87,74,54,30.18,29.92,18,3,18,0.14
2013-4-29,58,50,42,46,39,32,89,69,45,30.13,29.89,15,3,15,0.01
2013-4-30,56,46,35,40,35,29,83,65,49,30.42,30.13,10,2,10,0.00
2013-5-1,62,50,35,43,34,29,84,59,34,30.55,30.42,12,2,12,0.00
2013-5-2,66,55,46,45,40,34,71,59,40,30.53,30.35,11,2,11,0.00
2013-5-3,65,57,47,49,45,39,78,64,50,30.37,30.20,16,3,16,0.00
2013-5-4,73,62,52,51,46,41,73,57,35,30.21,29.97,13,2,13,0.00
2013-5-5,75,67,57,50,46,42,65,48,36,29.97,29.76,11,3,11,0.00
2013-5-6,82,68,53,52,48,44,75,52,29,29.84,29.75,9,2,9,0.00
2013-5-7,70,59,52,55,49,46,82,72,58,29.99,29.82,10,2,10,0.00
2013-5-8,64,56,51,54,49,46,83,77,67,30.13,29.99,7,1,7,0.00
2013-5-9,66,55,49,55,49,45,90,80,62,30.20,30.10,6,1,6,0.00
2013-5-10,75,62,48,59,51,43,86,70,50,30.18,30.09,6,2,6,0.00
2013-5-11,81,65,52,58,52,44,79,64,42,30.17,29.98,10,2,10,0.00
2013-5-12,69,62,57,58,55,51,85,78,65,30.09,30.01,9,2,9,0.05
2013-5-13,63,57,49,58,53,43,90,87,81,30.17,29.92,15,2,15,0.39
2013-5-14,64,58,48,49,44,40,83,60,44,30.20,30.09,8,1,8,0.00
2013-5-15,64,53,43,52,46,38,87,78,58,30.10,30.00,8,1,8,0.07
2013-5-16,68,59,50,55,51,47,91,76,57,30.00,29.86,10,2,10,0.04
2013-5-17,66,57,52,54,50,46,88,76,58,30.04,29.94,10,2,10,0.05
2013-5-18,60,55,51,51,48,46,84,77,67,30.25,30.04,7,1,7,0.00
2013-5-19,63,55,50,54,50,45,86,81,70,30.38,30.25,8,1,8,0.00
2013-5-20,67,55,45,54,47,41,88,77,52,30.34,29.89,12,2,12,0.00
2013-5-21,61,52,46,50,45,42,91,79,58,29.90,29.76,16,2,16,0.56
2013-5-22,53,48,44,48,44,41,90,86,80,29.91,29.82,10,1,10,0.31
2013-5-23,53,47,43,48,44,40,91,88,84,29.99,29.90,8,0,8,0.23
2013-5-24,63,53,44,52,47,42,92,81,61,30.04,29.94,9,1,9,0.01
2013-5-25,63,55,49,51,48,45,87,77,61,30.02,29.95,7,1,7,0.00
2013-5-26,63,55,50,56,50,46,92,85,72,29.97,29.93,10,1,10,0.15
2013-5-27,58,54,49,55,51,46,92,90,86,29.95,29.69,10,1,10,0.37
2013-5-28,61,55,51,56,50,47,93,85,72,29.86,29.75,13,2,13,0.05
2013-5-29,62,54,49,53,49,46,92,81,66,29.95,29.66,13,2,13,0.23
2013-5-30,63,55,48,52,48,44,87,77,62,30.17,29.95,11,2,11,0.02
2013-5-31,63,56,49,51,47,44,87,72,57,30.26,30.10,5,1,5,0.01
2013-6-1,73,65,55,55,50,46,74,60,47,30.18,30.03,8,2,8,0.00
2013-6-2,69,59,53,56,50,46,86,73,60,30.09,30.03,6,1,6,0.03
2013-6-3,73,59,52,57,51,47,86,74,52,30.11,30.04,8,1,8,0.00
2013-6-4,74,63,51,56,51,46,85,65,47,30.12,30.01,9,2,9,0.00
2013-6-5,74,63,53,58,52,45,78,68,47,30.08,30.02,10,2,10,0.00
2013-6-6,77,65,52,58,52,46,83,65,46,30.05,29.99,6,2,6,0.00
2013-6-7,71,62,54,56,51,47,79,68,57,30.14,30.02,10,2,11,0.00
2013-6-8,65,58,54,54,50,48,80,74,62,30.17,30.08,8,1,8,0.00
2013-6-9,65,57,52,53,49,46,82,74,60,30.10,30.01,10,2,10,0.00
2013-6-10,70,59,50,52,48,45,82,66,49,30.02,29.87,10,2,10,0.00
2013-6-11,67,58,49,50,46,43,81,66,49,30.09,29.93,13,2,13,0.00
2013-6-12,69,58,51,51,47,44,82,69,46,30.14,30.09,13,2,13,0.00
2013-6-13,68,58,51,56,50,45,84,76,55,30.20,30.12,6,1,6,0.12
2013-6-14,67,58,52,54,50,47,83,74,60,30.22,30.04,8,1,8,0.00
2013-6-15,71,61,51,56,51,46,86,70,56,30.04,29.91,9,2,10,0.00
2013-6-16,74,64,53,59,53,48,84,69,54,30.08,29.98,9,2,9,0.00
2013-6-17,76,64,56,57,52,49,81,66,44,30.08,29.90,15,2,15,0.01
2013-6-18,73,63,54,56,50,48,85,65,43,29.97,29.88,11,2,11,0.00
2013-6-19,69,60,53,54,50,46,82,70,52,29.99,29.90,10,1,10,0.00
2013-6-20,65,58,53,52,50,47,84,76,60,30.09,29.93,15,2,15,0.17
2013-6-21,69,59,53,57,51,48,84,74,53,30.15,30.08,7,1,7,0.00
2013-6-22,77,64,51,57,52,45,83,66,45,30.11,29.84,7,1,7,0.00
2013-6-23,68,63,60,60,56,51,82,78,69,29.84,29.60,5,1,6,0.27
2013-6-24,70,62,56,58,54,50,83,77,64,29.69,29.56,11,2,11,0.13
2013-6-25,74,62,56,61,55,50,83,77,55,29.84,29.66,9,1,9,0.43
2013-6-26,70,63,57,62,56,52,83,79,70,30.06,29.82,9,1,9,0.16
2013-6-27,68,63,58,62,57,52,82,80,77,30.18,30.03,5,1,5,0.20
2013-6-28,86,71,59,68,60,51,81,70,54,30.17,30.03,9,2,9,0.00
2013-6-29,84,72,63,65,60,56,80,68,51,30.09,29.98,8,1,8,0.00
2013-6-30,86,74,60,66,60,53,77,64,50,30.01,29.84,8,2,8,0.00
2013-7-1,88,75,65,69,62,58,79,66,51,30.02,29.91,8,2,8,0.00
2013-7-2,77,68,60,64,57,54,80,69,47,30.10,30.02,7,1,7,0.00
2013-7-3,72,66,59,57,53,48,73,63,47,30.14,30.03,9,2,9,0.00
2013-7-4,68,62,55,56,53,48,80,73,65,30.11,30.01,7,1,7,0.00
2013-7-5,74,65,55,59,54,49,81,70,55,30.02,29.95,6,1,6,0.00
2013-7-6,75,65,56,58,54,50,81,67,50,29.97,29.86,6,1,6,0.00
2013-7-7,76,64,57,63,56,51,81,74,61,29.94,29.88,8,2,9,0.00
2013-7-8,81,65,56,65,56,50,80,72,56,30.09,29.94,7,1,7,0.00
2013-7-9,77,68,57,61,56,51,80,67,51,30.10,29.98,8,1,8,0.00
2013-7-10,69,61,56,58,53,48,80,75,66,30.06,29.94,7,1,7,0.00
2013-7-11,69,61,52,52,49,45,79,65,50,30.06,29.98,7,2,7,0.00
2013-7-12,66,58,52,54,50,46,79,73,62,30.09,29.99,6,1,7,0.00
2013-7-13,74,62,48,54,49,42,81,64,42,30.18,30.09,7,2,7,0.00
2013-7-14,77,65,51,55,50,44,79,59,39,30.12,29.98,9,2,9,0.00
2013-7-15,75,66,54,56,51,46,76,59,44,30.03,29.88,12,2,12,0.00
2013-7-16,79,70,60,56,52,47,65,53,39,29.89,29.79,13,2,13,0.00
2013-7-17,71,65,58,58,55,50,77,69,60,30.18,29.87,11,2,11,0.00
2013-7-18,75,64,55,60,54,48,79,72,58,30.21,30.11,6,1,6,0.00
2013-7-19,75,64,54,62,55,48,80,73,61,30.15,30.03,5,1,5,0.00
2013-7-20,74,63,55,61,54,49,80,74,64,30.08,29.94,7,1,7,0.00
2013-7-21,77,63,55,62,54,49,79,74,60,29.97,29.90,8,1,8,0.00
2013-7-22,80,64,56,64,55,50,79,73,58,30.06,29.93,5,1,5,0.00
2013-7-23,78,66,54,60,53,43,78,64,43,30.06,29.96,8,1,8,0.00
2013-7-24,78,68,56,62,54,49,77,62,44,30.05,29.99,8,2,8,0.00
2013-7-25,80,66,54,60,53,47,78,63,46,30.10,30.01,7,2,7,0.00
2013-7-26,77,67,54,60,53,47,77,61,39,30.15,30.06,8,2,8,0.00
2013-7-27,78,64,53,57,51,46,78,64,42,30.16,29.99,8,1,9,0.00
2013-7-28,68,59,54,56,51,47,79,73,63,30.01,29.95,9,2,11,0.00
2013-7-29,74,63,53,58,52,46,79,69,55,29.99,29.93,7,1,7,0.00
2013-7-30,75,64,55,61,54,48,78,71,57,30.12,29.99,7,1,8,0.00
2013-7-31,72,62,56,61,54,48,77,75,70,30.11,29.97,11,1,11,0.00
2013-8-1,69,61,56,57,52,48,77,73,67,30.05,30.01,10,2,10,0.00
2013-8-2,63,59,57,55,50,47,76,71,64,30.11,30.04,5,0,5,0.13
2013-8-3,74,64,57,60,51,39,74,63,48,30.11,30.04,7,1,7,0.00
2013-8-4,75,66,56,62,56,47,75,69,60,30.04,29.92,9,2,9,0.00
2013-8-5,82,69,57,63,57,49,75,66,52,30.00,29.91,6,2,6,0.00
2013-8-6,80,67,55,62,54,48,76,65,46,29.99,29.90,6,2,6,0.00
2013-8-7,81,67,56,62,54,48,75,64,41,30.00,29.93,10,2,10,0.00
2013-8-8,78,66,58,62,55,50,74,68,53,30.02,29.92,7,1,8,0.00
2013-8-9,80,68,56,62,56,48,75,65,50,29.94,29.83,8,1,8,0.00
2013-8-10,76,65,58,64,54,47,74,69,63,30.00,29.88,9,2,9,0.10
2013-8-11,76,65,56,59,54,47,73,67,55,30.04,29.96,9,1,9,0.00
2013-8-12,77,66,59,59,54,50,74,65,49,30.06,29.99,8,1,8,0.00
2013-8-13,78,66,55,59,54,47,74,65,49,30.08,29.90,6,1,6,0.00
2013-8-14,80,66,55,63,55,47,74,68,50,29.95,29.89,10,1,10,0.07
2013-8-15,69,65,61,55,50,45,67,58,50,29.98,29.90,6,0,6,0.06
2013-8-16,82,69,59,66,50,27,71,52,25,30.00,29.93,10,1,10,0.02
2013-8-17,76,67,60,62,56,50,72,68,58,30.06,29.99,14,2,14,0.00
2013-8-18,78,66,57,62,54,48,73,67,56,30.11,30.06,13,2,13,0.00
2013-8-19,78,65,57,61,54,48,73,67,51,30.09,30.04,11,1,11,0.00
2013-8-20,73,65,57,57,52,48,73,63,47,30.15,30.05,10,2,10,0.00
2013-8-21,75,65,52,56,51,44,74,63,51,30.07,29.92,11,2,11,0.00
2013-8-22,81,68,55,59,54,47,73,61,39,29.93,29.80,8,1,8,0.00
2013-8-23,73,66,61,60,55,52,73,67,57,29.87,29.81,12,2,12,0.00
2013-8-24,74,66,60,59,54,51,73,66,50,29.90,29.83,8,1,8,0.00
2013-8-25,72,63,54,56,52,44,73,67,53,29.92,29.84,7,1,7,0.00
2013-8-26,76,64,59,61,54,50,72,68,45,29.94,29.84,12,1,12,0.01
2013-8-27,78,67,60,63,55,48,71,65,55,29.94,29.77,7,1,7,0.00
2013-8-28,76,68,59,64,54,37,70,63,40,29.89,29.82,7,1,7,0.15
2013-8-29,73,66,64,60,43,21,65,44,21,30.00,29.83,7,1,7,0.48
2013-8-30,78,67,58,62,48,26,70,52,27,30.14,30.00,8,1,8,0.00
2013-8-31,74,65,56,60,52,33,70,63,42,30.07,29.82,9,2,9,0.00
2013-9-1,80,68,57,63,53,41,69,61,52,29.87,29.79,10,2,10,0.00
2013-9-2,80,68,58,61,55,48,70,64,51,29.93,29.85,10,1,10,0.00
2013-9-3,71,64,60,59,43,3,70,51,1,30.01,29.92,5,1,5,0.41
2013-9-4,68,62,58,56,42,7,66,48,15,30.04,29.98,6,1,6,0.01
2013-9-5,66,61,59,54,27,2,65,32,1,30.02,29.91,6,1,6,0.40
2013-9-6,67,62,60,40,12,-27,40,10,1,30.09,29.92,5,0,5,0.09
2013-9-7,71,63,58,60,26,2,69,29,1,30.09,30.00,6,1,6,0.00
2013-9-8,78,66,55,66,46,2,70,52,1,30.10,30.01,4,1,4,0.00
2013-9-9,73,63,57,63,48,28,71,59,30,30.05,29.96,8,1,8,0.00
2013-9-10,73,64,56,63,46,2,71,56,6,29.98,29.87,8,2,9,0.00
2013-9-11,86,71,59,68,58,47,72,65,54,29.93,29.86,7,2,7,0.00
2013-9-12,79,67,60,66,52,36,71,59,41,29.99,29.89,6,1,6,0.00
2013-9-13,66,63,60,54,45,29,65,52,29,29.95,29.86,5,0,5,0.00
2013-9-14,69,63,59,58,44,23,69,52,23,29.86,29.71,4,1,4,0.00
2013-9-15,65,60,56,43,15,2,51,17,1,29.80,29.69,6,1,6,0.12
2013-9-16,71,62,58,60,28,2,70,32,1,29.91,29.79,8,1,10,0.02
2013-9-17,63,59,56,54,42,30,72,55,38,29.91,29.85,3,0,3,0.05
2013-9-18,70,59,52,58,38,19,72,50,24,30.09,29.91,5,1,5,0.00
2013-9-19,77,61,47,60,46,3,72,59,14,30.06,29.79,5,1,5,0.00
2013-9-20,76,61,51,60,48,34,73,64,41,29.79,29.63,12,1,12,0.00
2013-9-21,71,60,53,59,35,-1,71,45,1,29.74,29.67,6,1,9,0.00
2013-9-22,59,56,54,43,19,-1,59,26,1,29.77,29.58,6,1,6,0.87
2013-9-23,59,55,48,19,2,-2,22,7,1,29.98,29.77,6,1,6,0.29
2013-9-24,61,53,48,50,15,-6,67,24,1,29.98,29.86,5,1,5,0.02
2013-9-25,59,52,47,49,22,-5,73,37,1,30.05,29.87,8,2,8,0.05
2013-9-26,61,52,44,52,23,-8,71,37,1,30.15,30.04,5,1,5,0.01
2013-9-27,55,53,49,35,22,8,48,31,17,30.14,29.87,9,1,9,0.04
2013-9-28,59,55,51,24,1,-4,29,3,1,29.87,29.37,8,1,8,2.17
2013-9-29,54,52,50,24,-1,-4,36,4,1,29.57,29.19,7,1,7,0.77
2013-9-30,56,50,48,39,-3,-31,58,3,1,29.94,29.46,8,1,8,1.04
2013-10-1,56,50,46,33,0,-8,44,7,1,30.14,29.93,7,1,7,0.26
2013-10-2,53,50,48,-2,-4,-6,12,2,1,30.20,30.06,6,1,6,0.20
2013-10-3,54,50,44,33,7,-6,46,15,1,30.47,30.20,5,1,5,0.00
2013-10-4,58,49,42,47,14,-10,66,27,1,30.49,30.37,4,1,4,0.01
2013-10-5,62,52,44,52,22,-9,71,37,1,30.37,30.15,5,1,5,0.01
2013-10-6,68,55,43,57,36,-8,72,52,1,30.15,29.91,14,2,14,0.13
2013-10-7,59,54,51,50,26,-3,73,42,1,30.03,29.93,14,2,14,0.09
2013-10-8,56,50,44,47,33,11,73,52,21,30.09,29.98,7,1,8,0.12
2013-10-9,55,47,40,46,23,-10,71,42,1,30.15,29.97,5,1,5,0.01
2013-10-10,56,50,45,44,19,-7,64,32,1,30.09,29.95,5,0,5,0.02
2013-10-11,55,51,49,11,-1,-5,21,4,1,30.16,30.08,3,0,3,0.04
2013-10-12,54,50,44,0,0,0,0,0,100,30.23,30.08,5,1,5,0.06
2013-10-13,56,48,41,0,0,0,0,0,100,30.39,30.23,7,1,7,0.01
2013-10-14,55,48,42,0,0,0,0,0,100,30.44,30.37,7,1,7,0.00
2013-10-15,54,48,42,0,0,0,0,0,100,30.40,30.20,4,1,4,0.01
2013-10-16,53,49,45,0,0,0,0,0,100,30.22,30.16,9,1,9,0.00
2013-10-17,55,50,44,0,0,0,0,0,100,30.29,30.21,5,1,5,0.00
2013-10-18,52,48,44,0,0,0,0,0,100,30.26,30.16,7,1,7,0.01
2013-10-19,49,47,44,0,0,0,0,0,100,30.21,30.15,6,1,6,0.01
2013-10-20,50,48,47,0,0,0,0,0,100,30.22,30.16,7,1,7,0.00
2013-10-21,50,49,48,0,0,0,0,0,100,30.19,30.11,6,2,7,0.00
2013-10-22,51,49,48,0,0,0,0,0,100,30.13,30.05,8,2,8,0.00
2013-10-23,52,48,44,0,0,0,0,0,100,30.07,30.00,5,1,5,0.01
2013-10-24,49,46,42,0,0,0,0,0,100,30.14,30.04,3,1,3,0.01
2013-10-25,52,49,45,0,0,0,0,0,100,30.34,30.14,3,0,3,0.03
2013-10-26,54,50,47,0,0,0,0,0,100,30.35,30.21,7,1,7,0.00
2013-10-27,54,50,47,0,0,0,0,0,100,30.21,29.91,11,1,11,0.12
2013-10-28,57,50,46,0,0,0,0,0,100,29.96,29.90,14,2,14,0.00
2013-10-29,54,44,37,0,0,0,0,0,100,30.05,29.95,4,1,4,0.00
2013-10-30,54,47,38,0,0,0,0,0,100,30.14,30.03,7,1,7,0.01
2013-10-31,55,51,48,0,0,0,0,0,100,30.28,30.10,8,1,8,0.00
2013-11-1,58,53,51,0,0,0,0,0,100,30.29,29.86,4,1,4,0.01
2013-11-2,52,49,44,0,0,0,0,0,100,29.90,29.51,15,4,15,0.57
2013-11-3,51,44,38,0,0,0,0,0,100,30.12,29.90,7,1,7,0.01
2013-11-4,48,44,38,0,0,0,0,0,100,30.20,30.06,4,1,4,0.03
2013-11-5,53,47,42,0,0,0,0,0,100,30.27,30.02,9,1,9,0.19
2013-11-6,51,46,41,0,0,0,0,0,100,30.33,30.04,4,1,4,0.20
2013-11-7,51,48,47,0,0,0,0,0,100,30.04,29.72,11,2,11,1.20
2013-11-8,52,47,42,0,0,0,0,0,100,30.17,29.98,12,2,12,0.00
2013-11-9,48,44,39,0,0,0,0,0,100,30.16,30.08,7,1,7,0.09
2013-11-10,50,47,45,0,0,0,0,0,100,30.16,30.09,9,2,9,0.01
2013-11-11,53,47,44,0,0,0,0,0,100,30.18,30.02,6,1,6,0.00
2013-11-12,55,50,44,0,0,0,0,0,100,30.39,30.04,6,1,6,0.26
2013-11-13,55,50,48,0,0,0,0,0,100,30.45,30.32,6,1,6,0.02
2013-11-14,50,46,42,0,0,0,0,0,100,30.32,30.07,3,1,3,0.00
2013-11-15,47,44,42,0,0,0,0,0,100,30.08,29.35,14,2,14,0.11
2013-11-16,48,44,39,0,0,0,0,0,100,29.79,29.36,12,3,12,0.00
2013-11-17,48,45,42,0,0,0,0,0,100,29.92,29.78,12,2,12,0.36
2013-11-18,51,48,46,0,0,0,0,0,100,29.92,29.57,8,2,8,0.99
2013-11-19,51,44,38,0,0,0,0,0,100,30.07,29.57,10,2,10,0.09
2013-11-20,42,37,34,0,0,0,0,0,100,30.51,30.07,10,2,10,0.00
2013-11-21,41,37,34,0,0,0,0,0,100,30.66,30.50,7,2,8,0.00
2013-11-22,44,39,36,0,0,0,0,0,100,30.64,30.45,10,2,10,0.00
2013-11-23,46,40,36,0,0,0,0,0,100,30.45,30.21,7,1,7,0.00
2013-11-24,46,40,36,0,0,0,0,0,100,30.27,30.17,5,1,5,0.00
2013-11-25,47,39,35,0,0,0,0,0,100,30.33,30.26,4,1,4,0.01
2013-11-26,46,41,36,0,0,0,0,0,100,30.29,30.11,4,1,4,0.01
2013-11-27,50,44,38,0,0,0,0,0,100,30.11,29.98,5,1,5,0.00
2013-11-28,46,40,36,0,0,0,0,0,100,30.19,30.04,2,1,4,0.01
2013-11-29,46,43,38,0,0,0,0,0,100,30.33,30.19,3,0,3,0.01
2013-11-30,48,46,44,0,0,0,0,0,100,30.34,30.11,9,2,9,0.09
2013-12-1,51,49,42,0,0,0,0,0,100,30.11,29.76,17,3,17,0.21
2013-12-2,43,38,35,0,0,0,0,0,100,30.07,29.82,12,2,12,0.02
2013-12-3,38,35,33,0,0,0,0,0,100,30.31,30.07,14,3,14,0.00
2013-12-4,37,32,28,0,0,0,0,0,100,30.35,30.29,6,1,6,0.00
2013-12-5,34,29,25,0,0,0,0,0,100,30.32,30.19,4,1,4,0.00
2013-12-6,32,29,26,0,0,0,0,0,100,30.23,30.12,12,2,12,0.00
2013-12-7,30,25,19,0,0,0,0,0,100,30.43,30.22,10,2,10,0.00
2013-12-8,31,25,19,0,0,0,0,0,100,30.59,30.42,4,1,4,0.00
2013-12-9,32,28,22,23,12,0,70,38,60,30.59,30.50,3,1,3,0.00
2013-12-10,37,33,31,18,-1,-41,60,28,3,30.51,30.42,4,1,4,0.00
2013-12-11,38,33,29,0,-20,-48,11,1,1,30.43,30.18,4,1,4,0.01
2013-12-12,41,37,33,0,0,0,0,0,100,30.18,30.05,6,1,6,0.29
2013-12-13,46,43,40,0,0,0,0,0,100,30.44,30.14,8,1,8,0.02
2013-12-14,46,44,41,0,0,0,0,0,100,30.45,30.33,9,1,9,0.00
2013-12-15,50,46,44,0,0,0,0,0,100,30.46,30.33,12,2,12,0.09
2013-12-16,46,42,37,0,0,0,0,0,100,30.50,30.29,3,1,3,0.00
2013-12-17,43,41,39,0,0,0,0,0,100,30.29,30.12,4,0,4,0.00
2013-12-18,43,40,35,0,0,0,0,0,100,30.17,30.03,10,1,10,0.05
2013-12-19,38,35,32,0,0,0,0,0,100,30.35,30.16,12,1,12,0.00
2013-12-20,42,37,33,0,0,0,0,0,100,30.21,29.71,12,1,12,0.12
2013-12-21,45,43,41,0,0,0,0,0,100,30.18,29.85,4,1,5,0.17
2013-12-22,49,47,45,0,0,0,0,0,100,30.31,30.17,6,1,6,0.25
2013-12-23,51,46,39,0,0,0,0,0,100,30.51,30.16,12,3,12,0.11
2013-12-24,45,41,35,0,0,0,0,0,100,30.62,30.51,4,1,4,0.00
2013-12-25,41,38,33,0,0,0,0,0,100,30.54,30.39,5,1,5,0.01
2013-12-26,40,37,34,0,0,0,0,0,100,30.41,30.21,5,1,5,0.00
2013-12-27,45,40,34,0,0,0,0,0,100,30.39,30.14,10,1,10,0.01
2013-12-28,45,42,36,0,0,0,0,0,100,30.54,30.38,4,1,4,0.01
2013-12-29,44,40,36,0,0,0,0,0,100,30.49,30.32,5,1,5,0.00
2013-12-30,43,41,39,0,0,0,0,0,100,30.33,30.14,6,1,6,0.01
2013-12-31,45,44,42,0,0,0,0,0,100,30.39,30.20,5,1,5,0.00
2014-1-1,44,42,41,0,0,0,0,0,100,30.41,30.26,4,1,4,0.02
2014-1-2,49,45,42,0,0,0,0,0,100,30.27,29.89,14,2,14,0.18